Saturday, February 24, 2018, 8:12 AM GMT
Back to Local

CYPD, Port Hawkesbury

Location: , , Canada Lat: 45.667
Local Time: 8:12 AM GMT ( 8:12 GMT) Lon: -61.383
Time Zone: GMT Elev: 374 ft

Show me the last for .
Show Coded

Time T Td Feel RH Dir Speed Gust Alt SLP Vis Weather Sky Remarks
2018-02-24 07:54 27 25 19 92 160° 7 - 29.93 29.95 2 -SN OVC018 Pressure falling rapidly
2018-02-24 07:33 25 25 17 100 150° 7 - 29.95 29.98 3 -SN OVC018 Pressure falling rapidly
2018-02-24 07:21 25 23 18 92 140° 6 - 29.97 30.00 2 -SN OVC018 Pressure falling rapidly
2018-02-24 07:06 25 23 18 92 160° 6 - 29.99 30.01 3 -SN OVC016 Pressure falling rapidly
2018-02-24 07:00 25 23 18 92 150° 6 - 30.00 30.02 2 -SN OVC016 Pressure falling rapidly
2018-02-24 06:19 25 23 17 92 190° 7 - 30.06 30.08 2 -SN OVC024 Pressure falling rapidly
2018-02-24 06:18 25 23 18 92 200° 6 - 30.06 30.08 2 -SN OVC026 Pressure falling rapidly
2018-02-24 06:08 25 23 19 92 200° 5 - 30.07 30.09 3 -SN OVC026 Pressure falling rapidly
2018-02-24 06:04 25 23 20 92 200° 3 - 30.08 30.10 2 -SN OVC026 None
2018-02-24 06:00 25 21 20 85 210° 3 - 30.08 30.11 1 -SN FEW017 OVC022 None
2018-02-24 05:49 25 21 18 85 210° 6 - 30.09 30.11 2 -SN OVC024 None
2018-02-24 05:36 25 21 15 85 210° 9 - 30.09 30.12 2 -SN OVC034 None
2018-02-24 05:31 25 21 11 85 200° 9 18 30.09 30.12 5 -SN OVC038 None
2018-02-24 05:09 25 19 11 79 210° 9 17 30.10 30.13 6 -SN OVC032 None
2018-02-24 05:06 25 19 11 79 200° 8 20 30.09 30.12 3 -SN OVC030 Pressure falling rapidly
2018-02-24 05:00 25 19 9 79 200° 12 25 30.10 30.13 2 -SN OVC028 Pressure falling rapidly
2018-02-24 04:54 25 18 9 73 210° 10 25 30.11 30.14 2 -SN OVC032 None
2018-02-24 04:49 25 18 10 73 200° 14 22 30.11 30.14 5 -SN OVC038 None
2018-02-24 04:46 25 18 11 73 210° 13 18 30.12 30.14 9 -SN OVC040 None
2018-02-24 04:00 25 16 18 68 180° 6 - 30.15 30.18 9 OVC080 Pressure falling rapidly
2018-02-24 03:00 23 16 12 73 220° 10 - 30.22 30.25 9 SCT065 OVC092 None
2018-02-24 02:00 23 16 14 73 210° 8 - 30.28 30.30 9 BKN100 OVC120 None
2018-02-24 01:00 21 16 14 79 200° 6 - 30.33 30.36 9 BKN110 None
2018-02-24 00:00 18 10 - 72 - Calm - 30.38 30.41 9 BKN140 BKN230 None
2018-02-23 23:00 16 9 - 72 - Calm - 30.42 30.45 9 CLR None
2018-02-23 22:00 18 9 - 67 Variable 2 - 30.43 30.46 9 CLR Pressure falling rapidly
2018-02-23 21:00 21 9 13 57 290° 7 - 30.47 30.50 9 CLR None
2018-02-23 20:00 23 9 17 53 310° 5 - 30.50 30.53 9 CLR None
2018-02-23 19:00 23 7 9 49 310° 12 17 30.54 30.56 9 CLR None
2018-02-23 18:00 21 7 6 53 310° 12 20 30.57 30.60 9 CLR None
2018-02-23 17:00 21 9 6 57 300° 14 21 30.58 30.60 9 CLR None
2018-02-23 16:00 21 5 6 48 320° 10 20 30.59 30.61 9 CLR None
2018-02-23 15:00 21 3 5 44 290° 14 22 30.60 30.63 9 CLR None
2018-02-23 14:00 21 3 10 44 300° 10 - 30.61 30.64 9 CLR None
2018-02-23 13:00 18 5 2 57 330° 12 18 30.62 30.65 9 CLR None
2018-02-23 12:00 16 7 5 66 330° 8 - 30.62 30.65 9 CLR None
2018-02-23 11:00 14 5 -4 66 340° 6 21 30.60 30.63 9 CLR None
2018-02-23 10:20 16 5 -1 61 320° 8 20 30.60 30.63 9 BKN027 None
2018-02-23 10:00 16 7 4 66 330° 9 - 30.59 30.62 9 -SN OVC027 None
2018-02-23 09:00 16 9 -3 72 340° 15 25 30.59 30.62 9 -SN OVC027 None

Support USWX by starting your Amazon purchase here.